Latest Weather Observations for Cape Borda

IDS60801

Issued at 9:01 pm CDT Saturday 13 February 2016 (issued every 30 minutes, with the page automatically refreshed every 10 minutes)

About weather observations | Map of weather stations | Latest weather observations for SA | Other Formats
Station Details ID: 022823 Name: CAPE BORDA Lat: -35.75 Lon: 136.60 Height: 158.0 m
Data from the previous 72 hours. | See also: Recent months at Cape Borda
Date/Time
CDT
Temp
°C
App
Temp
°C
Dew
Point
Rel
Hum
%
Delta-T
°C
Wind Press
QNH
hPa
Press
MSL
hPa
Rain
since 9 am
mm
Dir
 
Spd
km/h
Gust
km/h
Spd
kts
Gust
kts
13/09:00pm 16.8 14.5 12.9 78 2.2 SW 17 24 9 13 1014.8 1014.4 0.0
13/08:30pm 17.0 14.8 12.1 73 2.7 SW 15 20 8 11 1014.5 - 0.0
13/08:00pm 17.4 14.3 12.2 71 2.9 SW 20 30 11 16 1014.2 - 0.0
13/07:30pm 18.6 14.8 12.4 67 3.5 SSW 24 33 13 18 1013.9 - 0.0
13/07:00pm 19.3 15.6 12.8 66 3.7 SW 24 33 13 18 1013.7 - 0.0
13/06:30pm 19.6 16.6 13.7 68 3.4 SW 22 32 12 17 1013.4 - 0.0
13/06:00pm 20.6 17.9 14.5 68 3.6 SW 22 30 12 16 1013.2 1012.9 0.0
13/05:30pm 21.1 17.6 13.5 62 4.4 SW 24 35 13 19 1013.3 - 0.0
13/05:00pm 20.7 17.7 14.8 69 3.5 SSW 24 32 13 17 1013.3 - 0.0
13/04:30pm 21.2 17.9 15.0 67 3.7 SW 26 35 14 19 1013.3 - 0.0
13/04:00pm 21.4 17.9 14.6 65 4.0 SW 26 43 14 23 1013.4 - 0.0
13/03:30pm 21.5 16.8 12.1 55 5.3 SW 28 39 15 21 1013.4 - 0.0
13/03:00pm 21.7 17.8 13.2 58 4.9 SW 26 33 14 18 1013.3 1013.0 0.0
13/02:30pm 21.4 17.6 14.8 66 3.9 SSW 28 39 15 21 1013.4 - 0.0
13/02:00pm 20.3 16.8 15.6 74 2.8 SW 28 41 15 22 1013.3 - 0.0
13/01:30pm 20.0 17.7 16.7 81 2.0 SW 24 35 13 19 1013.2 - 0.0
13/01:00pm 20.9 18.2 15.7 72 3.1 SSW 24 33 13 18 1013.3 - 0.0
13/12:30pm 21.2 18.4 16.4 74 2.9 SSW 26 33 14 18 1013.4 - 0.0
13/12:00pm 21.7 19.3 16.3 71 3.3 SSW 24 33 13 18 1013.2 1012.9 0.0
13/11:30am 20.0 18.3 17.1 83 1.8 SW 22 30 12 16 1013.2 - 0.0
13/11:00am 19.4 18.5 18.1 92 0.8 WSW 20 28 11 15 1013.1 - 0.0
13/10:30am 19.5 18.5 17.9 90 1.0 SW 20 26 11 14 1013.0 - 0.0
13/10:00am 19.0 19.0 18.2 95 0.5 WSW 15 22 8 12 1013.0 - 0.0
13/09:30am 18.8 18.5 18.2 96 0.4 WSW 17 24 9 13 1012.9 - 0.0
13/09:00am 18.5 18.5 18.2 98 0.2 WSW 15 20 8 11 1012.5 1012.2 0.0
13/08:30am 18.2 18.1 17.9 98 0.2 WSW 15 22 8 12 1012.3 - 0.0
13/08:00am 18.1 18.4 17.9 99 0.1 WSW 13 17 7 9 1012.0 - 0.0
13/07:30am 17.9 18.1 17.7 99 0.1 WSW 13 15 7 8 1011.8 - 0.0
13/07:00am 17.8 18.0 17.6 99 0.1 WSW 13 19 7 10 1011.5 - 0.0
13/06:30am 17.8 18.4 17.6 99 0.1 WSW 11 15 6 8 1011.2 - 0.0
13/05:30am 17.7 17.8 17.4 98 0.2 WSW 13 17 7 9 1011.1 - 0.0
13/05:00am 17.6 17.2 17.1 97 0.3 WSW 15 20 8 11 1011.1 - 0.0
13/04:30am 17.0 17.1 16.5 97 0.3 W 11 15 6 8 1010.8 - 0.0
13/04:00am 16.7 16.7 16.2 97 0.3 WNW 11 13 6 7 1010.9 - 0.0
13/03:30am 16.7 17.0 16.0 96 0.4 NW 9 11 5 6 1011.0 - 0.0
13/03:00am 16.5 16.7 15.8 96 0.4 NW 9 19 5 10 1011.3 1011.0 0.0
13/02:30am 16.3 16.4 15.4 94 0.5 NNW 9 11 5 6 1011.4 - 0.0
13/02:00am 16.5 16.5 15.3 93 0.7 WNW 9 11 5 6 1011.7 - 0.0
13/01:30am 16.5 16.1 15.1 91 0.8 W 11 15 6 8 1011.8 - 0.0
13/01:00am 16.4 15.6 15.0 91 0.8 WSW 13 19 7 10 1011.9 - 0.0
13/12:30am 16.2 15.2 14.6 90 0.9 SW 13 15 7 8 1011.9 - 0.0
13/12:00am 16.6 15.5 14.3 86 1.3 SW 13 17 7 9 1012.0 1011.7 0.0
 
Date/Time
CDT
Temp
°C
App
Temp
°C
Dew
Point
Rel
Hum
%
Delta-T
°C
Wind Press
QNH
hPa
Press
MSL
hPa
Rain
since 9 am
mm
Dir
 
Spd
km/h
Gust
km/h
Spd
kts
Gust
kts
12/11:30pm 16.9 14.6 13.0 78 2.2 SSW 17 20 9 11 1012.6 - 0.0
12/11:00pm 17.2 15.1 11.1 67 3.3 WSW 13 17 7 9 1012.4 - 0.0
12/10:30pm 17.2 14.6 9.4 60 4.1 WSW 13 17 7 9 1012.5 - 0.0
12/10:00pm 17.4 14.6 8.7 56 4.5 W 13 15 7 8 1012.5 - 0.0
12/09:30pm 17.6 15.5 9.7 60 4.2 W 11 13 6 7 1012.3 - 0.0
12/09:00pm 17.0 15.0 10.3 64 3.6 WSW 11 15 6 8 1012.3 1012.0 0.0
12/08:30pm 18.1 16.5 10.1 59 4.3 WSW 9 11 5 6 1012.2 - 0.0
12/08:00pm 19.9 18.6 10.1 53 5.3 WSW 7 9 4 5 1012.2 - 0.0
12/07:30pm 20.7 19.0 10.0 50 5.8 W 9 13 5 7 1012.4 - 0.0
12/07:00pm 21.3 19.4 10.4 49 6.0 W 11 15 6 8 1012.5 - 0.0
12/06:30pm 22.5 20.4 9.7 44 7.0 WNW 11 15 6 8 1012.5 - 0.0
12/06:00pm 24.4 21.1 2.5 24 10.6 N 9 13 5 7 1012.0 1011.7 0.0
12/05:30pm 23.7 21.6 9.9 41 7.6 WNW 11 15 6 8 1012.3 - 0.0
12/05:00pm 24.5 22.2 9.1 37 8.4 W 11 17 6 9 1012.6 - 0.0
12/04:30pm 23.6 21.2 8.8 39 8.0 WSW 11 17 6 9 1013.1 - 0.0
12/04:00pm 21.7 18.7 12.0 54 5.5 SSW 19 24 10 13 1013.6 - 0.0
12/03:30pm 21.3 17.8 13.3 60 4.6 SW 24 33 13 18 1014.2 - 0.0
12/03:00pm 21.9 18.5 13.7 59 4.8 WSW 24 33 13 18 1014.5 1014.1 0.0
12/02:30pm 20.7 17.1 13.2 62 4.3 WSW 24 32 13 17 1014.7 - 0.0
12/02:00pm 21.3 18.1 14.3 64 4.1 WSW 24 33 13 18 1015.0 - 0.0
12/01:30pm 21.1 18.7 13.7 62 4.3 WNW 19 24 10 13 1014.8 - 0.0
12/01:00pm 20.8 19.3 13.1 61 4.4 N 13 19 7 10 1014.4 - 0.0
12/12:30pm 20.7 18.7 11.6 56 5.1 NNW 13 15 7 8 1014.8 - 0.0
12/12:00pm 20.5 19.3 12.8 61 4.4 WNW 11 17 6 9 1015.2 1014.8 0.0
12/11:30am 20.7 19.4 12.6 59 4.6 NW 11 17 6 9 1015.5 - 0.0
12/11:00am 20.8 19.2 11.5 55 5.2 N 11 15 6 8 1016.0 - 0.0
12/10:30am 20.2 18.2 10.3 53 5.4 N 11 15 6 8 1016.1 - 0.0
12/10:00am 20.1 19.2 11.5 57 4.8 ESE 7 13 4 7 1016.3 - 0.0
12/09:30am 18.9 17.2 13.5 71 3.1 ESE 15 19 8 10 1016.5 - 0.0
12/09:00am 17.5 16.2 13.8 79 2.1 SE 13 20 7 11 1016.8 1016.5 0.0
12/08:30am 16.1 13.8 14.0 87 1.2 ESE 19 28 10 15 1016.5 - 0.0
12/08:00am 15.2 13.2 13.8 91 0.8 SE 17 24 9 13 1016.6 - 0.0
12/07:30am 14.4 12.3 13.5 94 0.5 SE 17 20 9 11 1016.5 - 0.0
12/07:00am 13.9 11.6 13.0 94 0.5 SE 17 24 9 13 1016.2 - 0.0
12/06:30am 14.0 11.4 13.3 96 0.4 SE 19 26 10 14 1015.9 - 0.0
12/06:00am 14.1 11.4 13.4 96 0.4 ESE 20 26 11 14 1015.6 1015.2 0.0
12/05:30am 14.1 11.4 13.4 96 0.4 SE 20 26 11 14 1015.5 - 0.0
12/05:00am 14.4 11.7 13.5 94 0.5 SE 20 26 11 14 1015.6 - 0.0
12/04:30am 14.4 11.7 13.5 94 0.5 SE 20 26 11 14 1015.7 - 0.0
12/04:00am 14.6 11.6 13.7 94 0.5 SE 22 28 12 15 1015.7 - 0.0
12/03:30am 14.7 12.0 13.6 93 0.6 SE 20 26 11 14 1016.0 - 0.0
12/03:00am 14.7 12.0 13.6 93 0.6 SE 20 26 11 14 1016.2 1015.8 0.0
12/02:30am 14.7 12.1 13.8 94 0.5 SE 20 26 11 14 1016.5 - 0.0
12/02:00am 14.8 12.2 13.9 94 0.5 SE 20 26 11 14 1016.9 - 0.0
12/01:30am 15.0 12.5 14.1 94 0.5 SE 20 24 11 13 1017.2 - 0.0
12/01:00am 15.3 12.9 14.4 94 0.5 SSE 20 30 11 16 1017.2 - 0.0
12/12:30am 15.2 12.8 14.5 96 0.4 SE 20 26 11 14 1017.2 - 0.0
12/12:00am 15.2 12.5 14.5 96 0.4 SSE 22 28 12 15 1017.5 1017.2 0.0
 
Date/Time
CDT
Temp
°C
App
Temp
°C
Dew
Point
Rel
Hum
%
Delta-T
°C
Wind Press
QNH
hPa
Press
MSL
hPa
Rain
since 9 am
mm
Dir
 
Spd
km/h
Gust
km/h
Spd
kts
Gust
kts
11/11:30pm 15.4 12.3 14.5 94 0.5 SSE 24 32 13 17 1017.7 - 0.0
11/11:00pm 15.6 12.9 14.6 94 0.6 SSE 22 30 12 16 1017.9 - 0.0
11/10:30pm 15.9 12.8 14.5 91 0.8 SSE 24 35 13 19 1018.0 - 0.0
11/10:00pm 16.1 11.8 14.5 90 0.9 SSE 30 39 16 21 1017.6 - 0.0
11/09:30pm 16.4 12.9 14.5 88 1.1 SSE 26 37 14 20 1017.4 - 0.0
11/09:00pm 16.6 12.7 14.5 87 1.2 SSE 28 39 15 21 1017.0 1016.7 0.0
11/08:30pm 17.2 13.2 14.1 82 1.8 SSE 28 43 15 23 1017.5 - 0.0
11/08:00pm 18.1 13.4 13.2 73 2.8 SSE 30 43 16 23 1017.2 - 0.0
11/07:30pm 19.4 15.1 13.1 67 3.6 SSE 28 44 15 24 1016.9 - 0.0
11/07:00pm 20.4 15.2 12.7 61 4.4 SSE 32 44 17 24 1016.6 - 0.0
11/06:30pm 21.4 16.6 12.8 58 4.9 SSE 30 41 16 22 1016.2 - 0.0
11/06:00pm 22.4 17.6 12.8 54 5.5 SSE 30 46 16 25 1016.2 1015.8 0.0
11/05:30pm 23.0 18.0 12.1 50 6.2 SSE 30 39 16 21 1016.1 - 0.0
11/05:00pm 23.5 18.9 12.3 49 6.4 SSE 28 41 15 22 1016.0 - 0.0
11/04:30pm 24.2 20.4 12.4 47 6.8 SSE 24 33 13 18 1016.0 - 0.0
11/04:00pm 25.0 21.6 12.4 45 7.3 SSE 22 32 12 17 1016.2 - 0.0
11/03:30pm 25.4 22.3 12.2 43 7.6 SE 20 33 11 18 1016.1 - 0.0
11/03:00pm 24.8 21.3 12.3 45 7.2 SE 22 33 12 18 1016.3 1016.0 0.0
11/02:30pm 24.8 23.1 12.3 45 7.2 SSE 13 26 7 14 1016.9 - 0.0
11/02:00pm 22.0 21.2 13.0 56 5.2 NNW 9 15 5 8 1017.0 - 0.0
11/01:30pm 21.3 20.8 13.9 62 4.3 N 9 17 5 9 1017.2 - 0.0
11/01:00pm 21.8 20.5 14.9 65 4.1 NNW 15 20 8 11 1017.6 - 0.0
11/12:30pm 21.2 20.5 14.2 64 4.1 NW 11 17 6 9 1017.4 - 0.0
11/12:00pm 22.9 20.7 12.2 51 6.1 SSE 15 28 8 15 1017.6 1017.3 0.0
11/11:30am 22.7 19.7 11.9 50 6.1 SE 19 28 10 15 1017.5 - 0.0
11/11:00am 22.5 19.3 11.9 51 6.0 SE 20 28 11 15 1017.5 - 0.0
11/10:30am 21.7 18.7 12.4 55 5.3 SE 20 32 11 17 1017.6 - 0.0
11/10:00am 20.6 16.8 12.5 59 4.6 SE 24 33 13 18 1017.5 - 0.0
11/09:30am 19.4 14.8 12.3 63 4.0 SE 28 39 15 21 1017.5 - 0.0
11/09:00am 18.6 13.6 12.1 66 3.6 SE 30 39 16 21 1017.6 1017.3 0.0
11/08:30am 17.8 13.2 12.4 70 3.0 SE 28 39 15 21 1017.6 - 0.0
11/08:00am 16.6 12.4 12.3 76 2.4 SE 26 43 14 23 1017.7 - 0.0
11/07:30am 15.5 11.3 12.4 82 1.7 SE 26 33 14 18 1017.6 - 0.0
11/07:00am 14.9 11.0 12.0 83 1.6 SSE 24 35 13 19 1017.3 - 0.0
11/06:30am 14.7 10.8 12.1 84 1.4 SSE 24 35 13 19 1016.9 - 0.0
11/06:00am 14.9 11.0 12.2 84 1.5 SSE 24 32 13 17 1016.7 1016.4 0.0
11/05:30am 14.7 11.6 12.3 85 1.3 SSE 20 30 11 16 1016.5 - 0.0
11/05:00am 14.7 12.2 12.3 85 1.3 SSE 17 26 9 14 1016.6 - 0.0
11/04:30am 14.7 12.2 12.3 85 1.3 SSE 17 28 9 15 1016.4 - 0.0
11/04:00am 14.5 12.1 12.5 88 1.1 SSE 17 24 9 13 1016.4 - 0.0
11/03:30am 14.8 12.3 12.4 85 1.3 SSE 17 24 9 13 1016.3 - 0.0
11/03:00am 15.2 12.4 12.5 84 1.5 SSE 19 28 10 15 1016.4 1016.1 0.0
11/02:30am 15.1 13.1 12.8 86 1.3 SSE 15 24 8 13 1016.6 - 0.0
11/02:00am 15.1 12.7 12.8 86 1.3 SSE 17 26 9 14 1016.6 - 0.0
11/01:30am 15.2 12.5 12.9 86 1.3 SSE 19 26 10 14 1016.6 - 0.0
11/01:00am 15.4 12.8 13.1 86 1.3 SSE 19 30 10 16 1017.1 - 0.0
11/12:30am 15.7 13.0 13.4 86 1.3 SSE 20 30 11 16 1017.1 - 0.0
11/12:00am 15.7 12.6 13.4 86 1.3 SSE 22 33 12 18 1017.1 1016.8 0.0
 
Date/Time
CDT
Temp
°C
App
Temp
°C
Dew
Point
Rel
Hum
%
Delta-T
°C
Wind Press
QNH
hPa
Press
MSL
hPa
Rain
since 9 am
mm
Dir
 
Spd
km/h
Gust
km/h
Spd
kts
Gust
kts
10/11:30pm 15.6 12.8 13.3 86 1.3 SSE 20 30 11 16 1017.3 - 0.0
10/11:00pm 15.3 13.1 13.3 88 1.1 SSE 17 30 9 16 1017.3 - 0.0
10/10:30pm 15.4 12.7 13.4 88 1.1 SSE 20 32 11 17 1017.2 - 0.0
10/10:00pm 15.3 12.5 13.3 88 1.1 SSE 20 32 11 17 1016.8 - 0.0
10/09:30pm 15.4 12.6 13.3 87 1.2 SSE 20 28 11 15 1016.7 - 0.0

Other Formats:

Comma delimited format used in spreadsheet applications
http://www.bom.gov.au/fwo/IDS60801/IDS60801.95805.axf

JavaScript Object Notation format (JSON) in row-major order
http://www.bom.gov.au/fwo/IDS60801/IDS60801.95805.json